.
WxDataArchive / Data Records for 2008-04-25
2008-04-24 April 2008 2008-04-26

Data Records for Friday, 25 April 2008

Time	Temp	Chill	HIndex	Humid	Dewpt	 Wind 	HiWind	WindDir	Rain 	Barom 
-----	----	-----	------	-----	-----	------	------	-------	-----	----- 
00:00	57.6	57.6	57.6	94	55.9	1	2	68	0.00	29.934 
00:05	57.6	57.6	57.6	94	55.9	1	2	68	0.00	29.932 
00:10	57.6	57.6	57.6	94	55.9	1	4	90	0.00	29.925 
00:15	57.8	57.8	57.8	94	56.1	1	4	112	0.00	29.921 
00:20	57.8	57.8	57.8	94	56.1	2	4	112	0.00	29.917 
00:25	57.5	57.5	57.5	94	55.8	2	5	90	0.00	29.918 
00:30	57.5	57.5	57.5	94	55.8	1	4	112	0.00	29.918 
00:35	57.6	57.6	57.6	94	55.9	1	3	112	0.00	29.918 
00:40	57.8	57.8	57.8	94	56.1	1	3	112	0.00	29.919 
00:45	58.0	58.0	58.0	95	56.6	1	3	112	0.00	29.918 
00:50	58.1	58.1	58.1	95	56.7	0	1	112	0.00	29.919 
00:55	58.3	58.3	58.3	95	56.9	1	3	112	0.00	29.918 
01:00	58.3	58.3	58.3	95	56.9	0	1	158	0.00	29.922 
01:05	58.4	58.4	58.4	95	57.0	0	1	158	0.00	29.928 
01:10	58.4	58.4	58.4	95	57.0	0	1	158	0.00	29.927 
01:15	58.4	58.4	58.4	95	57.0	0	2	158	0.01	29.921 
01:20	58.4	58.4	58.4	95	57.0	1	4	158	0.00	29.916 
01:25	58.4	58.4	58.4	95	57.0	0	2	90	0.00	29.916 
01:30	58.4	58.4	58.4	95	57.0	1	4	112	0.00	29.911 
01:35	58.6	58.6	58.6	95	57.2	2	4	135	0.00	29.906 
01:40	58.7	58.7	58.7	95	57.3	1	3	112	0.00	29.904 
01:45	58.7	58.7	58.7	95	57.3	1	2	112	0.00	29.903 
01:50	58.9	58.9	58.9	95	57.5	0	2	112	0.00	29.904 
01:55	58.9	58.9	58.9	95	57.5	0	2	112	0.00	29.901 
02:00	58.9	58.9	58.9	95	57.5	0	2	112	0.00	29.901 
02:05	59.0	59.0	59.0	95	57.6	0	2	135	0.00	29.898 
02:10	59.0	59.0	59.0	95	57.6	0	2	135	0.00	29.897 
02:15	59.0	59.0	59.0	95	57.6	0	2	135	0.00	29.897 
02:20	59.2	59.2	59.2	95	57.8	0	1	135	0.00	29.894 
02:25	59.3	59.3	59.3	95	57.9	0	2	135	0.00	29.893 
02:30	59.6	59.6	59.6	95	58.2	1	4	135	0.00	29.889 
02:35	59.9	59.9	59.9	95	58.5	1	6	112	0.00	29.887 
02:40	60.2	60.2	60.2	93	58.2	2	5	135	0.00	29.883 
02:45	60.5	60.5	60.5	92	58.2	1	5	90	0.00	29.882 
02:50	60.9	60.9	60.9	90	57.9	0	2	90	0.00	29.882 
02:55	61.3	61.3	61.3	88	57.7	1	5	112	0.00	29.883 
03:00	61.8	61.8	61.8	86	57.6	1	4	112	0.00	29.882 
03:05	62.3	62.3	62.3	85	57.7	1	4	90	0.00	29.883 
03:10	62.6	62.6	62.6	84	57.7	1	6	112	0.00	29.888 
03:15	62.7	62.7	62.7	84	57.8	0	2	112	0.00	29.891 
03:20	62.7	62.7	62.7	84	57.8	1	4	112	0.00	29.886 
03:25	62.9	62.9	62.9	83	57.7	0	3	90	0.00	29.890 
03:30	62.7	62.7	62.7	84	57.8	0	1	90	0.00	29.889 
03:35	62.7	62.7	62.7	83	57.5	0	3	90	0.00	29.884 
03:40	62.9	62.9	62.9	82	57.3	1	2	112	0.00	29.883 
03:45	63.1	63.1	63.1	81	57.2	1	3	135	0.00	29.881 
03:50	63.2	63.2	63.2	80	56.9	2	5	112	0.00	29.880 
03:55	63.5	63.5	63.5	79	56.9	1	4	135	0.00	29.879 
04:00	63.5	63.5	63.5	79	56.9	1	3	135	0.00	29.878 
04:05	63.5	63.5	63.5	79	56.9	1	3	135	0.00	29.878 
04:10	63.5	63.5	63.5	78	56.5	2	3	112	0.00	29.876 
04:15	63.7	63.7	63.7	78	56.7	1	4	112	0.00	29.875 
04:20	63.5	63.5	63.5	78	56.5	1	4	90	0.00	29.875 
04:25	63.4	63.4	63.4	79	56.8	1	3	112	0.00	29.872 
04:30	63.4	63.4	63.4	79	56.8	1	3	112	0.00	29.876 
04:35	63.2	63.2	63.2	80	56.9	0	3	135	0.00	29.876 
04:40	63.2	63.2	63.2	81	57.3	0	2	135	0.00	29.877 
04:45	63.2	63.2	63.2	81	57.3	0	3	135	0.00	29.875 
04:50	63.2	63.2	63.2	81	57.3	1	3	112	0.00	29.874 
04:55	63.2	63.2	63.2	81	57.3	1	3	112	0.00	29.875 
05:00	63.2	63.2	63.2	82	57.6	1	3	68	0.00	29.874 
05:05	63.2	63.2	63.2	81	57.3	1	5	135	0.00	29.877 
05:10	63.2	63.2	63.2	81	57.3	1	3	112	0.00	29.875 
05:15	63.4	63.4	63.4	82	57.8	1	6	90	0.00	29.878 
05:20	63.4	63.4	63.4	81	57.5	2	4	90	0.00	29.879 
05:25	63.5	63.5	63.5	81	57.6	1	4	90	0.00	29.879 
05:30	63.5	63.5	63.5	81	57.6	2	7	90	0.00	29.876 
05:35	63.5	63.5	63.5	81	57.6	2	6	90	0.00	29.877 
05:40	63.5	63.5	63.5	81	57.6	1	3	135	0.00	29.877 
05:45	63.4	63.4	63.4	81	57.5	1	4	112	0.00	29.878 
05:50	63.2	63.2	63.2	81	57.3	1	3	112	0.00	29.879 
05:55	63.2	63.2	63.2	81	57.3	1	5	112	0.00	29.879 
06:00	63.2	63.2	63.2	81	57.3	1	4	112	0.00	29.878 
06:05	63.4	63.4	63.4	81	57.5	2	6	90	0.00	29.878 
06:10	63.4	63.4	63.4	81	57.5	1	4	112	0.00	29.879 
06:15	63.4	63.4	63.4	81	57.5	1	5	112	0.00	29.877 
06:20	63.5	63.5	63.5	81	57.6	1	5	90	0.00	29.877 
06:25	63.7	63.7	63.7	81	57.8	1	6	112	0.00	29.874 
06:30	64.0	64.0	64.0	80	57.7	2	4	112	0.00	29.869 
06:35	64.2	64.2	64.2	80	57.9	1	3	112	0.00	29.871 
06:40	64.2	64.2	64.2	80	57.9	1	6	112	0.00	29.871 
06:45	64.3	64.3	64.3	79	57.6	1	4	112	0.00	29.872 
06:50	64.3	64.3	64.3	79	57.6	1	3	112	0.00	29.872 
06:55	64.5	64.5	64.5	79	57.8	1	3	112	0.00	29.876 
07:00	64.8	64.8	64.8	78	57.8	1	4	90	0.00	29.871 
07:05	65.5	65.5	65.5	77	58.1	1	5	112	0.00	29.877 
07:10	66.1	66.1	66.1	76	58.3	1	5	45	0.00	29.873 
07:15	66.4	66.4	66.4	74	57.9	2	4	90	0.00	29.872 
07:20	66.4	66.4	66.4	74	57.9	2	4	90	0.00	29.873 
07:25	66.4	66.4	66.4	75	58.2	1	4	90	0.00	29.874 
07:30	66.6	66.6	66.6	74	58.0	1	5	112	0.00	29.871 
07:35	66.8	66.8	66.8	74	58.2	1	4	112	0.00	29.871 
07:40	66.9	66.9	66.9	74	58.3	1	3	112	0.00	29.872 
07:45	67.1	67.1	67.1	74	58.5	1	2	90	0.00	29.869 
07:50	67.4	67.4	67.4	72	58.1	1	6	68	0.00	29.868 
07:55	67.9	67.9	67.9	72	58.5	1	3	202	0.00	29.867 
08:00	68.4	68.4	68.4	70	58.2	2	6	90	0.00	29.865 
08:05	69.1	69.1	69.1	68	58.1	2	6	90	0.00	29.866 
08:10	69.8	69.8	69.8	68	58.7	2	9	292	0.00	29.865 
08:15	70.3	70.3	70.3	67	58.8	1	4	45	0.00	29.865 
08:20	70.6	70.6	70.6	66	58.7	2	9	248	0.00	29.865 
08:25	70.9	70.9	70.9	66	59.0	2	9	112	0.00	29.862 
08:30	70.9	70.9	70.9	65	58.5	2	6	45	0.00	29.861 
08:35	71.1	71.1	71.1	65	58.7	2	5	68	0.00	29.859 
08:40	71.5	71.5	71.5	64	58.7	2	7	45	0.00	29.853 
08:45	71.5	71.5	71.5	63	58.2	3	9	248	0.00	29.851 
08:50	71.6	71.6	71.6	66	59.6	2	6	270	0.00	29.855 
08:55	71.8	71.8	71.8	64	59.0	2	9	90	0.00	29.853 
09:00	71.5	71.5	71.5	63	58.2	3	10	248	0.00	29.849 
09:05	71.6	71.6	71.6	64	58.8	2	6	248	0.00	29.851 
09:10	71.8	71.8	71.8	63	58.5	3	9	248	0.00	29.851 
09:15	72.0	72.0	72.0	64	59.1	2	7	270	0.00	29.850 
09:20	72.5	72.5	72.5	62	58.7	2	6	90	0.00	29.848 
09:25	73.0	73.0	73.0	62	59.2	2	12	90	0.00	29.849 
09:30	73.0	73.0	73.0	61	58.7	4	10	112	0.00	29.845 
09:35	72.8	72.8	72.8	61	58.6	2	6	248	0.00	29.842 
09:40	73.0	73.0	73.0	62	59.2	3	12	68	0.00	29.840 
09:45	73.3	73.3	73.3	60	58.6	4	10	248	0.00	29.839 
09:50	73.7	73.7	73.7	62	59.9	2	9	225	0.00	29.836 
09:55	74.0	74.0	74.0	61	59.7	3	8	90	0.00	29.836 
10:00	74.0	74.0	74.0	62	60.1	3	12	270	0.00	29.834 
10:05	74.4	74.4	74.4	61	60.1	3	9	90	0.00	29.836 
10:10	74.4	74.4	74.4	60	59.6	3	7	270	0.00	29.836 
10:15	74.2	74.2	74.2	61	59.9	3	12	225	0.00	29.833 
10:20	74.4	74.4	74.4	61	60.1	3	11	225	0.00	29.833 
10:25	74.7	74.7	74.7	60	59.9	3	13	112	0.00	29.831 
10:30	75.1	75.1	77.5	59	59.8	3	9	270	0.00	29.830 
10:35	75.4	75.4	77.6	60	60.5	2	7	248	0.00	29.830 
10:40	75.6	75.6	77.8	58	59.8	3	11	248	0.00	29.831 
10:45	75.8	75.8	77.9	58	59.9	4	10	248	0.00	29.833 
10:50	76.0	76.0	78.0	58	60.1	3	7	270	0.00	29.833 
10:55	76.1	76.1	78.1	59	60.7	3	10	270	0.00	29.834 
11:00	76.0	76.0	78.1	57	59.6	4	13	292	0.00	29.833 
11:05	76.3	76.3	78.2	58	60.4	3	10	248	0.00	29.831 
11:10	76.3	76.3	78.3	57	59.9	4	11	270	0.00	29.830 
11:15	76.1	76.1	78.1	58	60.2	4	13	248	0.00	29.831 
11:20	76.8	76.8	78.6	57	60.4	3	7	248	0.00	29.830 
11:25	77.4	77.4	79.1	59	61.9	3	7	270	0.00	29.831 
11:30	78.1	78.1	79.6	56	61.1	3	9	248	0.00	29.829 
11:35	78.3	78.3	79.7	55	60.8	3	9	248	0.00	29.829 
11:40	77.9	77.9	79.4	55	60.4	3	11	270	0.00	29.823 
11:45	77.0	77.0	78.7	56	60.1	4	10	248	0.00	29.822 
11:50	76.7	76.7	78.5	56	59.8	5	13	248	0.00	29.817 
11:55	77.0	77.0	78.7	55	59.6	4	10	248	0.00	29.818 
12:00	77.6	77.6	79.2	56	60.6	4	9	248	0.00	29.816 
12:05	78.1	78.1	79.5	54	60.1	4	9	248	0.00	29.812 
12:10	78.3	78.3	79.6	52	59.2	5	13	248	0.00	29.810 
12:15	78.3	78.3	79.6	53	59.7	5	13	248	0.00	29.812 
12:20	78.3	78.3	79.7	54	60.3	5	13	248	0.00	29.811 
12:25	78.1	78.1	79.5	54	60.1	4	11	248	0.00	29.812 
12:30	78.3	78.3	79.6	52	59.2	4	12	248	0.00	29.812 
12:35	78.3	78.3	79.7	54	60.3	3	11	270	0.00	29.812 
12:40	77.9	77.9	79.3	53	59.4	4	13	248	0.00	29.808 
12:45	77.9	77.9	79.3	54	59.9	4	7	248	0.00	29.806 
12:50	78.3	78.3	79.6	53	59.7	5	10	270	0.00	29.804 
12:55	78.6	78.6	79.7	51	58.9	5	13	248	0.00	29.803 
13:00	79.0	79.0	80.0	51	59.3	4	9	248	0.00	29.801 
13:05	78.8	78.8	79.8	50	58.6	6	15	270	0.00	29.800 
13:10	78.8	78.8	79.9	51	59.1	7	14	248	0.00	29.798 
13:15	79.4	79.4	80.3	50	59.1	6	14	270	0.00	29.799 
13:20	79.9	79.9	80.5	48	58.4	5	13	270	0.00	29.802 
13:25	79.9	79.9	80.5	48	58.4	5	16	248	0.00	29.801 
13:30	79.8	79.8	80.6	50	59.5	4	16	270	0.00	29.800 
13:35	79.6	79.6	80.5	50	59.3	3	11	270	0.00	29.802 
13:40	79.2	79.2	80.0	48	57.8	5	18	248	0.00	29.800 
13:45	79.0	79.0	79.8	48	57.6	6	15	270	0.00	29.799 
13:50	79.0	79.0	79.9	49	58.2	4	10	248	0.00	29.799 
13:55	79.0	79.0	80.0	50	58.7	4	12	270	0.00	29.800 
14:00	78.8	78.8	79.8	50	58.6	4	11	248	0.00	29.799 
14:05	79.8	79.8	80.8	52	60.6	3	7	248	0.00	29.795 
14:10	79.9	79.9	80.6	49	59.0	6	11	248	0.00	29.794 
14:15	79.6	79.6	80.4	49	58.7	4	14	270	0.00	29.790 
14:20	79.4	79.4	80.4	51	59.7	4	12	248	0.00	29.789 
14:25	79.4	79.4	80.2	49	58.5	5	10	270	0.00	29.785 
14:30	79.2	79.2	80.1	49	58.4	5	12	270	0.00	29.785 
14:35	79.0	79.0	80.0	50	58.7	3	7	248	0.00	29.782 
14:40	78.6	78.6	79.7	50	58.4	4	13	270	0.00	29.781 
14:45	78.6	78.6	79.6	49	57.8	4	12	270	0.00	29.779 
14:50	78.6	78.6	79.7	51	58.9	4	11	248	0.00	29.778 
14:55	79.2	79.2	80.2	51	59.5	3	7	248	0.00	29.773 
15:00	79.4	79.4	80.3	50	59.1	4	11	270	0.00	29.767 
15:05	79.9	79.9	80.8	51	60.1	3	13	270	0.00	29.763 
15:10	80.3	80.3	81.1	50	59.9	4	7	248	0.00	29.760 
15:15	80.1	80.1	80.8	49	59.2	4	12	225	0.00	29.758 
15:20	79.6	79.6	80.5	50	59.3	4	12	248	0.00	29.759 
15:25	79.4	79.4	80.4	51	59.7	3	11	248	0.00	29.758 
15:30	79.6	79.6	80.4	49	58.7	4	10	248	0.00	29.751 
15:35	79.6	79.6	80.4	49	58.7	4	11	248	0.00	29.751 
15:40	79.6	79.6	80.5	50	59.3	2	5	270	0.00	29.747 
15:45	79.9	79.9	80.7	50	59.6	4	15	248	0.00	29.745 
15:50	79.9	79.9	80.6	49	59.0	3	10	248	0.00	29.740 
15:55	79.8	79.8	80.5	48	58.3	5	14	248	0.00	29.735 
16:00	79.8	79.8	80.5	49	58.9	3	9	270	0.00	29.732 
16:05	79.8	79.8	80.6	50	59.5	3	7	248	0.00	29.732 
16:10	80.1	80.1	80.7	48	58.6	3	9	248	0.00	29.725 
16:15	80.5	80.5	80.9	47	58.4	3	7	248	0.00	29.722 
16:20	80.3	80.3	80.8	47	58.2	3	10	112	0.00	29.719 
16:25	80.1	80.1	80.9	50	59.8	2	6	248	0.00	29.719 
16:30	79.9	79.9	80.5	48	58.4	4	11	292	0.00	29.718 
16:35	80.1	80.1	80.7	48	58.6	2	5	90	0.00	29.717 
16:40	80.5	80.5	80.9	47	58.4	3	10	112	0.00	29.715 
16:45	80.9	80.9	81.3	47	58.8	4	13	225	0.00	29.715 
16:50	80.3	80.3	80.8	47	58.2	4	10	292	0.00	29.713 
16:55	79.9	79.9	80.4	47	57.8	4	15	248	0.00	29.716 
17:00	80.1	80.1	80.5	46	57.4	3	11	248	0.00	29.710 
17:05	80.1	80.1	80.5	46	57.4	3	11	90	0.00	29.708 
17:10	79.8	79.8	80.3	46	57.2	4	11	90	0.00	29.704 
17:15	79.9	79.9	80.4	46	57.2	3	10	248	0.00	29.704 
17:20	80.1	80.1	80.5	46	57.4	4	11	248	0.00	29.702 
17:25	79.9	79.9	80.4	47	57.8	4	13	248	0.00	29.701 
17:30	79.9	79.9	80.4	47	57.8	4	9	90	0.00	29.700 
17:35	79.8	79.8	80.5	48	58.3	2	6	90	0.00	29.700 
17:40	79.4	79.4	80.1	48	58.0	3	12	112	0.00	29.700 
17:45	79.0	79.0	79.8	48	57.6	3	13	292	0.00	29.696 
17:50	78.8	78.8	79.6	46	56.2	5	14	248	0.00	29.690 
17:55	78.6	78.6	79.5	48	57.2	2	6	248	0.00	29.689 
18:00	78.5	78.5	79.4	47	56.6	2	10	68	0.00	29.689 
18:05	78.5	78.5	79.4	47	56.6	2	6	112	0.00	29.687 
18:10	78.3	78.3	79.3	48	57.0	2	6	292	0.00	29.686 
18:15	78.1	78.1	79.2	48	56.8	2	7	248	0.00	29.686 
18:20	77.9	77.9	79.1	49	57.2	2	7	315	0.00	29.687 
18:25	77.9	77.9	79.1	49	57.2	3	10	248	0.00	29.687 
18:30	77.7	77.7	79.0	49	57.0	2	9	112	0.00	29.686 
18:35	77.7	77.7	79.0	49	57.0	2	6	248	0.00	29.686 
18:40	77.6	77.6	78.9	49	56.9	2	6	270	0.00	29.685 
18:45	77.4	77.4	78.8	49	56.7	2	6	248	0.00	29.686 
18:50	77.2	77.2	78.7	50	57.1	2	6	248	0.00	29.690 
18:55	77.0	77.0	78.6	50	56.9	2	6	270	0.00	29.693 
19:00	76.8	76.8	78.5	51	57.3	1	7	0	0.00	29.692 
19:05	76.5	76.5	78.3	51	57.0	1	4	270	0.00	29.694 
19:10	76.5	76.5	78.3	51	57.0	2	5	248	0.00	29.695 
19:15	76.3	76.3	78.2	50	56.3	2	6	112	0.00	29.693 
19:20	76.3	76.3	78.2	50	56.3	2	7	225	0.00	29.696 
19:25	76.0	76.0	78.1	51	56.5	2	9	248	0.00	29.696 
19:30	75.8	75.8	78.0	52	56.9	1	6	0	0.00	29.698 
19:35	75.3	75.3	77.7	53	57.0	1	2	0	0.00	29.698 
19:40	75.1	75.1	77.6	54	57.3	1	3	68	0.00	29.698 
19:45	74.7	74.7	74.7	54	56.9	1	3	112	0.00	29.697 
19:50	74.7	74.7	74.7	55	57.4	1	5	112	0.00	29.697 
19:55	74.6	74.6	74.6	55	57.3	1	5	270	0.00	29.697 
20:00	74.4	74.4	74.4	55	57.2	1	7	68	0.00	29.696 
20:05	74.2	74.2	74.2	55	57.0	1	3	90	0.00	29.695 
20:10	74.0	74.0	74.0	55	56.8	1	3	270	0.00	29.697 
20:15	74.0	74.0	74.0	55	56.8	2	4	90	0.00	29.697 
20:20	73.9	73.9	73.9	56	57.2	1	4	68	0.00	29.695 
20:25	73.7	73.7	73.7	56	57.0	1	7	112	0.00	29.696 
20:30	73.5	73.5	73.5	56	56.8	1	4	112	0.00	29.697 
20:35	73.5	73.5	73.5	56	56.8	2	5	112	0.00	29.698 
20:40	73.3	73.3	73.3	56	56.6	1	3	90	0.00	29.699 
20:45	73.2	73.2	73.2	56	56.5	2	6	90	0.00	29.701 
20:50	73.2	73.2	73.2	57	57.0	1	4	90	0.00	29.699 
20:55	73.2	73.2	73.2	57	57.0	1	6	90	0.00	29.699 
21:00	73.0	73.0	73.0	57	56.9	2	3	112	0.00	29.698 
21:05	72.8	72.8	72.8	58	57.1	1	5	90	0.00	29.696 
21:10	72.7	72.7	72.7	58	57.1	2	6	90	0.00	29.695 
21:15	72.5	72.5	72.5	59	57.3	1	7	68	0.00	29.694 
21:20	72.3	72.3	72.3	60	57.6	2	4	90	0.00	29.696 
21:25	72.1	72.1	72.1	61	57.9	1	5	45	0.00	29.697 
21:30	71.8	71.8	71.8	61	57.6	1	3	90	0.00	29.695 
21:35	71.6	71.6	71.6	61	57.4	1	4	90	0.00	29.693 
21:40	71.6	71.6	71.6	62	57.9	1	4	90	0.00	29.695 
21:45	71.6	71.6	71.6	62	57.9	1	3	112	0.00	29.692 
21:50	71.6	71.6	71.6	61	57.4	1	4	90	0.00	29.690 
21:55	71.6	71.6	71.6	61	57.4	2	6	90	0.00	29.689 
22:00	71.6	71.6	71.6	62	57.9	1	4	135	0.00	29.692 
22:05	71.8	71.8	71.8	62	58.1	1	10	112	0.00	29.689 
22:10	71.8	71.8	71.8	61	57.6	1	4	158	0.00	29.689 
22:15	71.8	71.8	71.8	61	57.6	1	3	112	0.00	29.686 
22:20	72.0	72.0	72.0	60	57.3	1	4	90	0.00	29.689 
22:25	72.1	72.1	72.1	60	57.4	1	4	248	0.00	29.686 
22:30	72.3	72.3	72.3	59	57.2	1	5	68	0.00	29.684 
22:35	72.5	72.5	72.5	58	56.9	1	5	90	0.00	29.684 
22:40	72.5	72.5	72.5	58	56.9	2	10	112	0.00	29.685 
22:45	72.7	72.7	72.7	58	57.1	1	5	248	0.00	29.683 
22:50	72.7	72.7	72.7	58	57.1	2	7	90	0.00	29.681 
22:55	72.5	72.5	72.5	58	56.9	1	5	112	0.00	29.682 
23:00	72.5	72.5	72.5	58	56.9	2	5	90	0.00	29.681 
23:05	72.3	72.3	72.3	58	56.7	1	8	90	0.00	29.683 
23:10	72.0	72.0	72.0	59	56.9	1	5	270	0.00	29.683 
23:15	71.6	71.6	71.6	59	56.5	2	11	248	0.00	29.685 
23:20	71.6	71.6	71.6	59	56.5	2	7	248	0.00	29.691 
23:25	71.5	71.5	71.5	59	56.4	2	5	248	0.00	29.693 
23:30	71.3	71.3	71.3	60	56.7	2	6	225	0.00	29.696 
23:35	71.1	71.1	71.1	60	56.5	2	5	225	0.00	29.697 
23:40	71.1	71.1	71.1	60	56.5	2	6	270	0.00	29.698 
23:45	70.9	70.9	70.9	61	56.8	1	5	248	0.00	29.696 
23:50	70.9	70.9	70.9	61	56.8	2	7	248	0.00	29.696 
23:55	70.9	70.9	70.9	61	56.8	2	4	248	0.00	29.696 

CoCoRaHS
IN-AL-39
A2 Web Hosting
Creative Commons License
GoDaddy
Look for:

loaded 2017-12-12 16:57:37 • last modified 2010-11-18 10:43:29
Privacy PolicyDisclaimer
• wx.awcolley.com is powered by PmWiki v.2002016 •
• all content (unless otherwise noted) © 2017 A W Colley